createdAt,value
2022-09-25T00:00:06.476Z,13.60
2022-09-25T00:02:38.841Z,13.60
2022-09-25T00:05:09.829Z,13.61
2022-09-25T00:07:39.614Z,13.63
2022-09-25T00:10:10.547Z,13.63
2022-09-25T00:12:40.212Z,13.63
2022-09-25T00:15:11.137Z,13.64
2022-09-25T00:17:43.526Z,13.65
2022-09-25T00:20:10.789Z,13.65
2022-09-25T00:22:42.262Z,13.65
2022-09-25T00:25:15.613Z,13.67
2022-09-25T00:27:48.517Z,13.64
2022-09-25T00:30:18.199Z,13.62
2022-09-25T00:32:50.562Z,13.58
2022-09-25T00:35:20.454Z,13.59
2022-09-25T00:37:50.120Z,13.58
2022-09-25T00:40:20.009Z,13.56
2022-09-25T00:42:49.756Z,13.55
2022-09-25T00:45:22.503Z,13.55
2022-09-25T00:48:02.015Z,13.55
2022-09-25T00:50:37.053Z,13.55
2022-09-25T00:53:12.041Z,13.55
2022-09-25T00:55:44.557Z,13.53
2022-09-25T00:58:17.008Z,13.53
2022-09-25T01:00:47.045Z,13.51
2022-09-25T01:03:20.287Z,13.48
2022-09-25T01:05:51.512Z,13.47
2022-09-25T01:08:24.780Z,13.46
2022-09-25T01:10:54.722Z,13.44
2022-09-25T01:13:24.657Z,13.42
2022-09-25T01:16:00.232Z,13.41
2022-09-25T01:18:45.738Z,13.42
2022-09-25T01:21:26.577Z,13.39
2022-09-25T01:24:34.772Z,13.38
2022-09-25T01:27:26.121Z,13.37
2022-09-25T01:30:06.398Z,13.36
2022-09-25T01:32:46.263Z,13.34
2022-09-25T01:35:21.221Z,13.28
2022-09-25T01:37:57.760Z,13.26
2022-09-25T01:40:33.704Z,13.23
2022-09-25T01:43:10.550Z,13.26
2022-09-25T01:45:49.702Z,13.23
2022-09-25T01:48:25.238Z,13.24
2022-09-25T01:51:00.930Z,13.26
2022-09-25T01:53:35.347Z,13.21
2022-09-25T01:56:10.957Z,13.21
2022-09-25T01:58:45.915Z,13.17
2022-09-25T02:01:23.464Z,13.16
2022-09-25T02:03:58.028Z,13.15
2022-09-25T02:06:28.313Z,13.16
2022-09-25T02:09:01.313Z,13.18
2022-09-25T02:11:38.002Z,13.20
2022-09-25T02:14:13.809Z,13.21
2022-09-25T02:16:46.167Z,13.21
2022-09-25T02:19:45.652Z,13.20
2022-09-25T02:22:22.521Z,13.17
2022-09-25T02:24:59.284Z,13.17
2022-09-25T02:27:30.963Z,13.16
2022-09-25T02:30:01.603Z,13.13
2022-09-25T02:32:35.853Z,13.12
2022-09-25T02:35:05.991Z,13.12
2022-09-25T02:37:35.703Z,13.11
2022-09-25T02:40:07.525Z,13.10
2022-09-25T02:42:45.521Z,13.06
2022-09-25T02:45:36.560Z,13.01
2022-09-25T02:48:16.580Z,12.95
2022-09-25T02:50:54.685Z,12.95
2022-09-25T02:53:32.642Z,12.95
2022-09-25T02:56:06.822Z,12.99
2022-09-25T02:58:41.604Z,12.99
2022-09-25T03:01:15.613Z,12.99
2022-09-25T03:03:50.392Z,13.01
2022-09-25T03:06:21.162Z,12.99
2022-09-25T03:08:53.143Z,13.02
2022-09-25T03:11:24.333Z,13.00
2022-09-25T03:13:59.143Z,12.99
2022-09-25T03:16:37.293Z,12.97
2022-09-25T03:19:10.204Z,12.96
2022-09-25T03:21:39.881Z,12.93
2022-09-25T03:24:09.919Z,12.94
2022-09-25T03:26:40.694Z,12.95
2022-09-25T03:29:10.539Z,12.96
2022-09-25T03:31:41.297Z,12.95
2022-09-25T03:34:14.736Z,12.93
2022-09-25T03:36:47.623Z,12.93
2022-09-25T03:39:18.860Z,12.92
2022-09-25T03:41:48.737Z,12.92
2022-09-25T03:44:18.550Z,12.92
2022-09-25T03:46:48.225Z,12.92
2022-09-25T03:49:20.557Z,12.89
2022-09-25T03:51:50.257Z,12.89
2022-09-25T03:54:20.048Z,12.88
2022-09-25T03:56:49.762Z,12.87
2022-09-25T03:59:19.620Z,12.87
2022-09-25T04:01:49.888Z,12.87
2022-09-25T04:04:22.794Z,12.84
2022-09-25T04:06:52.528Z,12.82
2022-09-25T04:09:22.205Z,12.83
2022-09-25T04:11:52.101Z,12.82
2022-09-25T04:14:21.823Z,12.81
2022-09-25T04:16:52.121Z,12.79
2022-09-25T04:19:24.423Z,12.78
2022-09-25T04:21:54.160Z,12.75
2022-09-25T04:24:36.254Z,12.74
2022-09-25T04:27:06.064Z,12.74
2022-09-25T04:29:35.725Z,12.74
2022-09-25T04:32:17.945Z,12.73
2022-09-25T04:34:50.261Z,12.71
2022-09-25T04:37:22.922Z,12.71
2022-09-25T04:39:52.625Z,12.69
2022-09-25T04:42:24.807Z,12.67
2022-09-25T04:44:55.828Z,12.65
2022-09-25T04:47:26.537Z,12.64
2022-09-25T04:49:59.289Z,12.62
2022-09-25T04:52:33.302Z,12.59
2022-09-25T04:55:04.343Z,12.57
2022-09-25T04:57:57.198Z,12.56
2022-09-25T05:00:24.752Z,12.55
2022-09-25T05:02:55.088Z,12.54
2022-09-25T05:05:29.388Z,12.53
2022-09-25T05:08:00.793Z,12.51
2022-09-25T05:10:32.502Z,12.50
2022-09-25T05:13:03.751Z,12.49
2022-09-25T05:15:35.957Z,12.47
2022-09-25T05:18:07.681Z,12.46
2022-09-25T05:20:40.863Z,12.46
2022-09-25T05:23:11.118Z,12.46
2022-09-25T05:25:40.995Z,12.47
2022-09-25T05:28:11.732Z,12.46
2022-09-25T05:30:41.861Z,12.46
2022-09-25T05:33:11.606Z,12.45
2022-09-25T05:35:43.886Z,12.44
2022-09-25T05:38:13.654Z,12.41
2022-09-25T05:40:43.524Z,12.40
2022-09-25T05:43:13.488Z,12.39
2022-09-25T05:45:43.238Z,12.41
2022-09-25T05:48:13.178Z,12.38
2022-09-25T05:50:45.447Z,12.38
2022-09-25T05:53:15.120Z,12.37
2022-09-25T05:55:44.948Z,12.37
2022-09-25T05:58:14.912Z,12.37
2022-09-25T06:00:44.709Z,12.39
2022-09-25T06:03:14.438Z,12.41
2022-09-25T06:05:47.082Z,12.43
2022-09-25T06:08:17.417Z,12.44
2022-09-25T06:10:47.122Z,12.46
2022-09-25T06:13:16.802Z,12.48
2022-09-25T06:15:46.589Z,12.49
2022-09-25T06:18:16.415Z,12.51
2022-09-25T06:20:48.785Z,12.54
2022-09-25T06:23:19.024Z,12.58
2022-09-25T06:25:48.880Z,12.62
2022-09-25T06:28:18.676Z,12.67
2022-09-25T06:30:48.505Z,12.73
2022-09-25T06:33:18.308Z,12.79
2022-09-25T06:35:51.862Z,12.86
2022-09-25T06:38:21.619Z,12.92
2022-09-25T06:40:51.471Z,12.99
2022-09-25T06:43:21.516Z,13.07
2022-09-25T06:45:51.453Z,13.15
2022-09-25T06:48:22.271Z,13.23
2022-09-25T06:50:57.593Z,13.30
2022-09-25T06:53:28.757Z,13.37
2022-09-25T06:56:01.027Z,13.41
2022-09-25T06:58:32.062Z,13.46
2022-09-25T07:01:05.121Z,13.45
2022-09-25T07:03:47.440Z,13.49
2022-09-25T07:06:21.866Z,13.50
2022-09-25T07:08:52.630Z,13.52
2022-09-25T07:11:24.113Z,13.54
2022-09-25T07:13:55.262Z,13.58
2022-09-25T07:16:26.960Z,13.62
2022-09-25T07:18:58.613Z,13.66
2022-09-25T07:21:32.556Z,13.68
2022-09-25T07:24:02.425Z,13.71
2022-09-25T07:26:34.740Z,13.73
2022-09-25T07:29:08.046Z,13.75
2022-09-25T07:31:38.990Z,13.77
2022-09-25T07:34:09.600Z,13.81
2022-09-25T07:36:42.878Z,13.85
2022-09-25T07:39:18.192Z,13.88
2022-09-25T07:41:48.644Z,13.91
2022-09-25T07:44:28.390Z,13.95
2022-09-25T07:47:01.029Z,13.98
2022-09-25T07:49:30.748Z,14.01
2022-09-25T07:52:03.764Z,14.06
2022-09-25T07:54:34.783Z,14.10
2022-09-25T07:57:04.620Z,14.11
2022-09-25T07:59:34.379Z,14.15
2022-09-25T08:02:05.073Z,14.18
2022-09-25T08:04:34.850Z,14.18
2022-09-25T08:07:07.513Z,14.20
2022-09-25T08:09:37.237Z,14.21
2022-09-25T08:12:07.806Z,14.21
2022-09-25T08:14:37.501Z,14.22
2022-09-25T08:17:07.185Z,14.21
2022-09-25T08:19:36.892Z,14.23
2022-09-25T08:22:10.313Z,14.25
2022-09-25T08:24:40.382Z,14.28
2022-09-25T08:27:10.226Z,14.31
2022-09-25T08:29:39.924Z,14.29
2022-09-25T08:32:10.084Z,14.31
2022-09-25T08:34:41.470Z,14.31
2022-09-25T08:37:14.651Z,14.35
2022-09-25T08:39:44.384Z,14.35
2022-09-25T08:42:20.936Z,14.39
2022-09-25T08:45:21.539Z,14.42
2022-09-25T08:48:16.680Z,14.50
2022-09-25T08:50:46.502Z,14.65
2022-09-25T08:53:24.367Z,14.83
2022-09-25T08:56:07.101Z,14.99
2022-09-25T08:58:42.833Z,15.11
2022-09-25T09:01:22.497Z,15.23
2022-09-25T09:03:58.135Z,15.33
2022-09-25T09:06:30.840Z,15.44
2022-09-25T09:09:09.566Z,15.64
2022-09-25T09:11:44.404Z,15.72
2022-09-25T09:14:18.657Z,15.85
2022-09-25T09:16:53.184Z,16.02
2022-09-25T09:19:22.993Z,16.12
2022-09-25T09:22:00.975Z,16.21
2022-09-25T09:24:43.501Z,16.23
2022-09-25T09:27:26.473Z,16.20
2022-09-25T09:30:12.126Z,16.17
2022-09-25T09:32:56.480Z,16.09
2022-09-25T09:35:34.235Z,15.99
2022-09-25T09:38:15.166Z,15.87
2022-09-25T09:41:04.821Z,15.82
2022-09-25T09:43:56.495Z,15.81
2022-09-25T09:46:37.278Z,15.72
2022-09-25T09:49:16.366Z,15.62
2022-09-25T09:51:51.749Z,15.55
2022-09-25T09:54:27.852Z,15.49
2022-09-25T09:57:02.493Z,15.43
2022-09-25T09:59:40.202Z,15.36
2022-09-25T10:02:22.626Z,15.33
2022-09-25T10:04:53.746Z,15.30
2022-09-25T10:07:25.602Z,15.29
2022-09-25T10:09:58.286Z,15.29
2022-09-25T10:12:34.688Z,15.34
2022-09-25T10:15:07.965Z,15.36
2022-09-25T10:17:39.010Z,15.39
2022-09-25T10:20:23.329Z,15.42
2022-09-25T10:22:58.671Z,15.48
2022-09-25T10:25:40.449Z,15.62
2022-09-25T10:28:29.360Z,15.73
2022-09-25T10:31:01.059Z,15.82
2022-09-25T10:33:33.511Z,15.93
2022-09-25T10:36:03.517Z,16.00
2022-09-25T10:38:42.212Z,16.06
2022-09-25T10:41:15.222Z,16.09
2022-09-25T10:44:00.223Z,16.19
2022-09-25T10:46:45.021Z,16.24
2022-09-25T10:49:35.299Z,16.24
2022-09-25T10:52:08.201Z,16.23
2022-09-25T10:54:44.358Z,16.22
2022-09-25T10:57:25.647Z,16.23
2022-09-25T10:59:59.599Z,16.29
2022-09-25T11:02:38.193Z,16.33
2022-09-25T11:05:10.193Z,16.37
2022-09-25T11:07:40.246Z,16.37
2022-09-25T11:10:23.128Z,16.37
2022-09-25T11:12:54.570Z,16.28
2022-09-25T11:15:29.537Z,16.08
2022-09-25T11:18:00.265Z,15.82
2022-09-25T11:20:32.901Z,15.59
2022-09-25T11:23:24.275Z,15.35
2022-09-25T11:26:00.377Z,15.18
2022-09-25T11:28:37.845Z,15.08
2022-09-25T11:31:18.446Z,15.06
2022-09-25T11:33:54.173Z,15.08
2022-09-25T11:36:30.396Z,15.13
2022-09-25T11:39:18.586Z,15.21
2022-09-25T11:41:53.459Z,15.30
2022-09-25T11:44:32.254Z,15.38
2022-09-25T11:47:11.213Z,15.44
2022-09-25T11:49:44.884Z,15.49
2022-09-25T11:52:37.492Z,15.55
2022-09-25T11:55:34.745Z,15.57
2022-09-25T11:58:26.450Z,15.59
2022-09-25T12:01:03.421Z,15.61
2022-09-25T12:03:55.844Z,15.68
2022-09-25T12:06:49.199Z,15.72
2022-09-25T12:09:37.228Z,15.78
2022-09-25T12:12:15.698Z,15.84
2022-09-25T12:14:58.560Z,15.88
2022-09-25T12:17:38.830Z,15.90
2022-09-25T12:20:20.955Z,15.96
2022-09-25T12:23:00.842Z,15.99
2022-09-25T12:25:44.298Z,16.01
2022-09-25T12:28:22.198Z,16.04
2022-09-25T12:31:05.749Z,16.10
2022-09-25T12:33:42.456Z,16.13
2022-09-25T12:36:20.760Z,16.14
2022-09-25T12:38:55.910Z,16.14
2022-09-25T12:41:33.502Z,16.19
2022-09-25T12:44:08.075Z,16.24
2022-09-25T12:46:45.382Z,16.24
2022-09-25T12:49:20.678Z,16.26
2022-09-25T12:51:55.232Z,16.28
2022-09-25T12:54:30.658Z,16.27
2022-09-25T12:57:05.189Z,16.28
2022-09-25T12:59:46.022Z,16.26
2022-09-25T13:02:22.841Z,16.30
2022-09-25T13:05:04.613Z,16.33
2022-09-25T13:07:45.348Z,16.34
2022-09-25T13:10:26.657Z,16.37
2022-09-25T13:13:00.702Z,16.41
2022-09-25T13:15:35.369Z,16.47
2022-09-25T13:18:18.639Z,16.51
2022-09-25T13:20:53.837Z,16.52
2022-09-25T13:23:35.777Z,16.52
2022-09-25T13:26:13.697Z,16.52
2022-09-25T13:28:52.855Z,16.48
2022-09-25T13:31:27.452Z,16.46
2022-09-25T13:34:05.484Z,16.43
2022-09-25T13:36:40.844Z,16.44
2022-09-25T13:39:34.130Z,16.41
2022-09-25T13:42:08.804Z,16.35
2022-09-25T13:44:52.706Z,16.35
2022-09-25T13:47:46.673Z,16.38
2022-09-25T13:50:41.626Z,16.41
2022-09-25T13:53:37.188Z,16.38
2022-09-25T13:56:46.024Z,16.37
2022-09-25T13:59:40.834Z,16.29
2022-09-25T14:02:40.550Z,16.29
2022-09-25T14:05:10.701Z,16.24
2022-09-25T14:07:44.429Z,16.27
2022-09-25T14:10:15.062Z,16.29
2022-09-25T14:12:50.390Z,16.30
2022-09-25T14:15:26.976Z,16.34
2022-09-25T14:17:59.069Z,16.35
2022-09-25T14:20:38.640Z,16.35
2022-09-25T14:23:16.866Z,16.31
2022-09-25T14:25:47.806Z,16.29
2022-09-25T14:28:24.385Z,16.28
2022-09-25T14:31:06.370Z,16.26
2022-09-25T14:34:14.810Z,16.29
2022-09-25T14:37:01.819Z,16.31
2022-09-25T14:39:35.609Z,16.34
2022-09-25T14:42:44.089Z,16.36
2022-09-25T14:45:45.738Z,16.36
2022-09-25T14:48:20.404Z,16.38
2022-09-25T14:50:54.570Z,16.41
2022-09-25T14:53:30.989Z,16.39
2022-09-25T14:56:09.579Z,16.39
2022-09-25T14:58:42.861Z,16.39
2022-09-25T15:01:23.606Z,16.38
2022-09-25T15:03:53.538Z,16.37
2022-09-25T15:06:29.052Z,16.35
2022-09-25T15:08:59.046Z,16.34
2022-09-25T15:11:30.266Z,16.34
2022-09-25T15:14:13.729Z,16.34
2022-09-25T15:16:59.213Z,16.36
2022-09-25T15:19:33.238Z,16.34
2022-09-25T15:22:03.611Z,16.34
2022-09-25T15:24:37.002Z,16.30
2022-09-25T15:27:09.165Z,16.23
2022-09-25T15:29:40.985Z,16.19
2022-09-25T15:32:20.306Z,16.17
2022-09-25T15:34:50.416Z,16.14
2022-09-25T15:37:26.479Z,16.13
2022-09-25T15:39:57.016Z,16.13
2022-09-25T15:42:26.705Z,16.12
2022-09-25T15:45:01.104Z,16.07
2022-09-25T15:47:58.068Z,16.05
2022-09-25T15:50:30.662Z,16.00
2022-09-25T15:53:03.392Z,15.97
2022-09-25T15:55:34.281Z,15.97
2022-09-25T15:58:13.642Z,15.96
2022-09-25T16:01:10.045Z,15.94
2022-09-25T16:04:04.660Z,15.94
2022-09-25T16:06:41.038Z,15.95
2022-09-25T16:09:24.057Z,15.94
2022-09-25T16:11:53.885Z,15.93
2022-09-25T16:14:29.533Z,15.91
2022-09-25T16:17:00.357Z,15.89
2022-09-25T16:19:37.523Z,15.88
2022-09-25T16:22:23.464Z,15.85
2022-09-25T16:24:55.415Z,15.85
2022-09-25T16:27:29.583Z,15.84
2022-09-25T16:30:04.378Z,15.84
2022-09-25T16:32:34.974Z,15.85
2022-09-25T16:35:07.965Z,15.86
2022-09-25T16:37:39.042Z,15.83
2022-09-25T16:40:24.937Z,15.83
2022-09-25T16:42:57.582Z,15.83
2022-09-25T16:45:31.785Z,15.81
2022-09-25T16:48:04.354Z,15.80
2022-09-25T16:50:43.993Z,15.77
2022-09-25T16:53:14.993Z,15.74
2022-09-25T16:55:53.565Z,15.71
2022-09-25T16:58:24.054Z,15.68
2022-09-25T17:00:54.138Z,15.66
2022-09-25T17:03:24.240Z,15.65
2022-09-25T17:05:58.232Z,15.65
2022-09-25T17:08:28.155Z,15.63
2022-09-25T17:10:57.916Z,15.62
2022-09-25T17:13:31.205Z,15.62
2022-09-25T17:16:01.091Z,15.63
2022-09-25T17:18:30.886Z,15.63
2022-09-25T17:21:06.149Z,15.63
2022-09-25T17:23:36.208Z,15.62
2022-09-25T17:26:08.343Z,15.57
2022-09-25T17:28:38.113Z,15.56
2022-09-25T17:31:08.125Z,15.53
2022-09-25T17:33:37.902Z,15.48
2022-09-25T17:36:13.520Z,15.45
2022-09-25T17:38:43.351Z,15.39
2022-09-25T17:41:22.388Z,15.34
2022-09-25T17:43:52.753Z,15.27
2022-09-25T17:46:23.495Z,15.21
2022-09-25T17:48:54.865Z,15.16
2022-09-25T17:51:29.705Z,15.11
2022-09-25T17:54:02.343Z,15.06
2022-09-25T17:56:34.329Z,15.01
2022-09-25T17:59:05.280Z,14.96
2022-09-25T18:01:39.433Z,14.91
2022-09-25T18:04:22.256Z,14.89
2022-09-25T18:06:55.381Z,14.84
2022-09-25T18:09:25.130Z,14.80
2022-09-25T18:11:54.806Z,14.76
2022-09-25T18:14:24.736Z,14.72
2022-09-25T18:16:54.409Z,14.69
2022-09-25T18:19:36.522Z,14.67
2022-09-25T18:22:22.045Z,14.67
2022-09-25T18:24:56.433Z,14.65
2022-09-25T18:27:27.957Z,14.64
2022-09-25T18:29:58.381Z,14.61
2022-09-25T18:32:28.263Z,14.56
2022-09-25T18:34:57.967Z,14.53
2022-09-25T18:37:30.366Z,14.47
2022-09-25T18:40:00.116Z,14.44
2022-09-25T18:42:29.925Z,14.40
2022-09-25T18:45:00.389Z,14.36
2022-09-25T18:47:30.769Z,14.28
2022-09-25T18:50:00.481Z,14.24
2022-09-25T18:52:32.774Z,14.18
2022-09-25T18:55:03.080Z,14.14
2022-09-25T18:57:36.275Z,14.10
2022-09-25T19:00:09.488Z,14.06
2022-09-25T19:02:41.101Z,14.02
2022-09-25T19:05:12.122Z,14.00
2022-09-25T19:07:44.439Z,13.97
2022-09-25T19:10:14.146Z,13.94
2022-09-25T19:12:43.886Z,13.90
2022-09-25T19:15:13.996Z,13.87
2022-09-25T19:17:43.755Z,13.85
2022-09-25T19:20:13.682Z,13.85
2022-09-25T19:22:45.989Z,13.84
2022-09-25T19:25:20.111Z,13.82
2022-09-25T19:27:51.957Z,13.80
2022-09-25T19:30:21.717Z,13.79
2022-09-25T19:32:51.601Z,13.82
2022-09-25T19:35:21.434Z,13.83
2022-09-25T19:37:54.086Z,13.84
2022-09-25T19:40:36.249Z,13.85
2022-09-25T19:43:06.370Z,13.85
2022-09-25T19:45:37.328Z,13.88
2022-09-25T19:48:07.344Z,13.88
2022-09-25T19:50:37.185Z,13.88
2022-09-25T19:53:09.581Z,13.85
2022-09-25T19:55:41.063Z,13.85
2022-09-25T19:58:10.980Z,13.84
2022-09-25T20:00:43.905Z,13.84
2022-09-25T20:03:14.252Z,13.84
2022-09-25T20:05:44.874Z,13.86
2022-09-25T20:08:17.501Z,13.86
2022-09-25T20:10:47.417Z,13.84
2022-09-25T20:13:17.478Z,13.80
2022-09-25T20:15:50.233Z,13.78
2022-09-25T20:18:20.348Z,13.77
2022-09-25T20:20:50.103Z,13.75
2022-09-25T20:23:22.422Z,13.75
2022-09-25T20:25:52.306Z,13.73
2022-09-25T20:28:22.405Z,13.74
2022-09-25T20:30:52.176Z,13.70
2022-09-25T20:33:21.931Z,13.70
2022-09-25T20:35:51.686Z,13.70
2022-09-25T20:38:25.256Z,13.68
2022-09-25T20:40:55.577Z,13.67
2022-09-25T20:43:26.025Z,13.68
2022-09-25T20:46:01.225Z,13.68
2022-09-25T20:48:31.094Z,13.64
2022-09-25T20:51:00.949Z,13.64
2022-09-25T20:53:33.441Z,13.64
2022-09-25T20:56:06.958Z,13.66
2022-09-25T20:58:37.209Z,13.62
2022-09-25T21:01:08.801Z,13.64
2022-09-25T21:03:41.413Z,13.63
2022-09-25T21:06:14.509Z,13.64
2022-09-25T21:08:46.945Z,13.63
2022-09-25T21:11:16.620Z,13.63
2022-09-25T21:13:46.374Z,13.62
2022-09-25T21:16:17.738Z,13.62
2022-09-25T21:18:47.511Z,13.61
2022-09-25T21:21:18.113Z,13.61
2022-09-25T21:23:51.849Z,13.60
2022-09-25T21:26:21.762Z,13.60
2022-09-25T21:28:53.906Z,13.59
2022-09-25T21:31:25.720Z,13.61
2022-09-25T21:33:56.145Z,13.60
2022-09-25T21:36:26.585Z,13.60
2022-09-25T21:38:59.067Z,13.59
2022-09-25T21:41:33.336Z,13.58
2022-09-25T21:44:05.329Z,13.56
2022-09-25T21:46:36.174Z,13.56
2022-09-25T21:49:08.854Z,13.55
2022-09-25T21:51:41.070Z,13.53
2022-09-25T21:54:14.189Z,13.53
2022-09-25T21:56:44.578Z,13.51
2022-09-25T21:59:14.975Z,13.51
2022-09-25T22:01:45.213Z,13.50
2022-09-25T22:04:16.515Z,13.51
2022-09-25T22:06:48.427Z,13.48
2022-09-25T22:09:22.634Z,13.49
2022-09-25T22:11:53.013Z,13.50
2022-09-25T22:14:24.048Z,13.49
2022-09-25T22:16:55.047Z,13.50
2022-09-25T22:19:26.837Z,13.51
2022-09-25T22:21:58.475Z,13.51
2022-09-25T22:24:31.108Z,13.50
2022-09-25T22:27:00.813Z,13.49
2022-09-25T22:29:30.553Z,13.48
2022-09-25T22:32:01.851Z,13.48
2022-09-25T22:34:33.065Z,13.47
2022-09-25T22:37:02.812Z,13.47
2022-09-25T22:39:35.129Z,13.48
2022-09-25T22:42:04.871Z,13.47
2022-09-25T22:44:34.693Z,13.49
2022-09-25T22:47:04.470Z,13.47
2022-09-25T22:49:34.154Z,13.49
2022-09-25T22:52:05.384Z,13.50
2022-09-25T22:54:37.706Z,13.49
2022-09-25T22:57:07.407Z,13.50
2022-09-25T22:59:37.138Z,13.49
2022-09-25T23:02:06.999Z,13.48
2022-09-25T23:04:36.762Z,13.48
2022-09-25T23:07:06.511Z,13.49
2022-09-25T23:09:38.930Z,13.46
2022-09-25T23:12:08.801Z,13.45
2022-09-25T23:14:38.486Z,13.41
2022-09-25T23:17:08.267Z,13.39
2022-09-25T23:19:38.061Z,13.39
2022-09-25T23:22:08.105Z,13.37
2022-09-25T23:24:41.017Z,13.38
2022-09-25T23:27:10.718Z,13.38
2022-09-25T23:29:40.429Z,13.38
2022-09-25T23:32:10.562Z,13.37
2022-09-25T23:34:40.297Z,13.36
2022-09-25T23:37:09.954Z,13.37
2022-09-25T23:39:42.796Z,13.39
2022-09-25T23:42:12.481Z,13.37
2022-09-25T23:44:42.228Z,13.38
2022-09-25T23:47:11.919Z,13.38
2022-09-25T23:49:41.652Z,13.39
2022-09-25T23:52:11.656Z,13.38
2022-09-25T23:54:44.047Z,13.38
2022-09-25T23:57:15.289Z,13.37
2022-09-25T23:59:44.977Z,13.36
